Saint Peter, IL (62880)

10:42 PM CDT on August 30, 2016 (GMT -0500)
Kinmundy Atmospheric Research Laboratory | | Change Station

Elev 570 ft 38.78 °N, 88.89 °W | Updated 48 seconds ago

Clear
Clear
73.2 °F
Feels Like 73.2 °F
N
0.0
Wind Variable Wind from NNW
Gusts 3.0 mph

Today
High -- | Low -- °F
--% Chance of Precip.
Yesterday
High -- | Low -- °F
Precip. -- in
Pressure 30.07 in
Visibility 7.0 miles
Clouds Clear
Dew Point 72 °F
Humidity 95%
Rainfall 0.00 in
Snow Depth Not available.
6:23 AM 7:28 PM
Waning Crescent, 2% visible
METAR KSLO 310335Z AUTO 00000KT 7SM CLR 23/22 A3007 RMK AO2 T02300217
Pressure 30.07 in
Visibility 7.0 miles
Clouds Clear
Dew Point 72 °F
Humidity 95%
Rainfall 0.00 in
Snow Depth Not available.
6:23 AM 7:28 PM
Waning Crescent, 2% visible
METAR KSLO 310335Z AUTO 00000KT 7SM CLR 23/22 A3007 RMK AO2 T02300217

10-Day Weather Forecast

Almanac

Astronomy

Aug. 30, 2016 Rise Set
Actual Time
Civil Twilight
Nautical Twilight
Astronomical Twilight
Moon
Length of Visible Light
Length of Day
Tomorrow will be .
, % of the Moon is Illuminated

Today's Extremes

State Highs State Lows

Community

WunderPhotos

Upload Photos

1,936,021 photos uploaded!

WunderBlog® & News

Nearby

Air Quality

  Air Quality AQ Index Pollutant
Not available.

Snow Depth

Station Depth Elevation

Earthquake Activity

City Distance Mag. Time & Date
Minimum magnitude displayed is 2.5.

Coastal Water Temperatures

Place Temperature

Stations

Nearby Weather Stations

Station Location Temp. Windchill Dew Point Humidity Wind Precip. Elev Updated Type
                   

Watches & Warnings

There are currently no watches in effect.